Time;durP1;ratioP1;P1;durP2;ratioP2;P2;SDS_P1;SDS_P2;PMS_P1;PMS_P2;Temp;Humidity;BMP_temperature;BMP_pressure;BME280_temperature;BME280_humidity;BME280_pressure;Samples;Min_cycle;Max_cycle;Signal;HPM_P1;HPM_P2
2022/08/25 00:00:46;;;;;;;19.55;17.85;;;;;;;;;;4987772;28;20053;-86
2022/08/25 00:03:12;;;;;;;19.35;17.65;;;;;;;;;;4985347;28;20069;-86
2022/08/25 00:05:38;;;;;;;19.75;18.02;;;;;;;;;;4988495;28;20046;-86
2022/08/25 00:08:05;;;;;;;20.00;18.30;;;;;;;;;;5010130;28;20045;-86
2022/08/25 00:10:33;;;;;;;19.55;17.95;;;;;;;;;;4984477;28;20064;-86
2022/08/25 00:12:59;;;;;;;19.77;17.98;;;;;;;;;;4985160;28;20047;-86
2022/08/25 00:15:25;;;;;;;21.30;19.50;;;;;;;;;;4988961;28;20058;-86
2022/08/25 00:17:54;;;;;;;21.35;19.48;;;;;;;;;;4989344;28;20057;-86
2022/08/25 00:20:21;;;;;;;22.08;20.10;;;;;;;;;;4988739;28;20108;-85
2022/08/25 00:22:48;;;;;;;21.52;19.73;;;;;;;;;;4990638;28;20042;-85
2022/08/25 00:25:14;;;;;;;21.42;19.55;;;;;;;;;;5004475;28;20073;-86
2022/08/25 00:27:42;;;;;;;21.67;19.48;;;;;;;;;;5005217;28;20042;-85
2022/08/25 00:30:09;;;;;;;22.48;20.42;;;;;;;;;;5002096;28;20553;-86
2022/08/25 00:32:35;;;;;;;21.38;19.33;;;;;;;;;;4997393;28;20100;-87
2022/08/25 00:35:01;;;;;;;21.70;19.80;;;;;;;;;;4987394;28;20042;-85
2022/08/25 00:37:27;;;;;;;21.85;19.95;;;;;;;;;;4997621;28;20046;-86
2022/08/25 00:39:55;;;;;;;22.48;20.33;;;;;;;;;;4992888;28;20050;-86
2022/08/25 00:42:22;;;;;;;21.65;19.70;;;;;;;;;;4987571;28;20089;-86
2022/08/25 00:44:48;;;;;;;21.90;20.08;;;;;;;;;;5012635;28;20054;-86
2022/08/25 00:47:14;;;;;;;21.77;19.80;;;;;;;;;;4986215;28;20382;-86
2022/08/25 00:49:46;;;;;;;23.40;21.40;;;;;;;;;;4989400;28;20045;-87
2022/08/25 00:52:17;;;;;;;23.63;21.73;;;;;;;;;;5006822;28;20397;-86
2022/08/25 00:54:49;;;;;;;22.38;20.27;;;;;;;;;;4991942;28;20478;-86
2022/08/25 00:57:17;;;;;;;21.03;19.13;;;;;;;;;;5003425;28;20042;-86
2022/08/25 00:59:43;;;;;;;22.83;20.75;;;;;;;;;;5009590;28;20092;-85
2022/08/25 01:02:10;;;;;;;22.65;20.63;;;;;;;;;;4987105;28;20413;-86
2022/08/25 01:04:36;;;;;;;21.95;20.05;;;;;;;;;;4988543;28;20100;-85
2022/08/25 01:07:03;;;;;;;21.73;19.67;;;;;;;;;;5004834;28;20042;-85
2022/08/25 01:09:31;;;;;;;20.90;19.05;;;;;;;;;;5006224;28;20517;-86
2022/08/25 01:11:57;;;;;;;22.33;20.13;;;;;;;;;;4991876;28;20104;-86
2022/08/25 01:14:27;;;;;;;20.92;19.02;;;;;;;;;;4985997;28;20049;-85
2022/08/25 01:16:53;;;;;;;20.40;18.67;;;;;;;;;;4984423;28;20072;-86
2022/08/25 01:19:20;;;;;;;22.08;20.15;;;;;;;;;;5002867;28;20050;-86
2022/08/25 01:21:47;;;;;;;20.85;19.13;;;;;;;;;;4988726;28;20045;-86
2022/08/25 01:24:49;;;;;;;21.70;19.73;;;;;;;;;;4988458;28;20132;-86
2022/08/25 01:27:15;;;;;;;19.98;18.30;;;;;;;;;;4908928;29;20055;-88
2022/08/25 01:29:42;;;;;;;20.33;18.48;;;;;;;;;;4989336;28;20048;-86
2022/08/25 01:32:13;;;;;;;20.25;18.45;;;;;;;;;;5016623;28;20049;-87
2022/08/25 01:34:40;;;;;;;20.65;18.92;;;;;;;;;;5004412;28;20132;-86
2022/08/25 01:37:07;;;;;;;21.17;19.27;;;;;;;;;;5005711;28;20080;-85
2022/08/25 01:39:35;;;;;;;22.02;20.02;;;;;;;;;;4990186;28;20045;-87
2022/08/25 01:42:12;;;;;;;20.70;19.00;;;;;;;;;;5005070;28;20118;-87
2022/08/25 01:44:39;;;;;;;22.35;20.45;;;;;;;;;;4988247;28;20046;-88
2022/08/25 01:47:06;;;;;;;20.73;19.02;;;;;;;;;;4987764;28;20041;-86
2022/08/25 01:49:32;;;;;;;20.13;18.33;;;;;;;;;;5007865;28;20108;-87
2022/08/25 01:52:01;;;;;;;20.63;18.83;;;;;;;;;;5006407;28;20393;-86
2022/08/25 01:54:27;;;;;;;20.90;18.85;;;;;;;;;;5008477;28;20507;-86
2022/08/25 01:56:53;;;;;;;20.73;18.83;;;;;;;;;;5000077;28;20054;-87
2022/08/25 01:59:20;;;;;;;20.75;18.73;;;;;;;;;;5003489;28;20050;-87
2022/08/25 02:01:46;;;;;;;20.73;18.40;;;;;;;;;;5020062;28;20062;-86
2022/08/25 02:04:12;;;;;;;21.05;18.88;;;;;;;;;;5024124;28;20111;-85
2022/08/25 02:06:39;;;;;;;21.05;19.15;;;;;;;;;;5005392;28;21244;-86
2022/08/25 02:09:07;;;;;;;20.00;18.10;;;;;;;;;;5026060;28;20033;-86
2022/08/25 02:11:34;;;;;;;19.83;18.15;;;;;;;;;;5026361;28;20077;-86
2022/08/25 02:14:00;;;;;;;21.10;19.10;;;;;;;;;;5027191;28;20049;-86
2022/08/25 02:16:28;;;;;;;18.58;16.83;;;;;;;;;;5006240;28;20065;-86
2022/08/25 02:18:55;;;;;;;20.40;18.58;;;;;;;;;;5006190;28;20073;-84
2022/08/25 02:21:24;;;;;;;19.20;17.23;;;;;;;;;;5023119;28;20037;-87
2022/08/25 02:23:50;;;;;;;19.35;17.52;;;;;;;;;;5022810;28;20044;-86
2022/08/25 02:26:18;;;;;;;19.58;17.77;;;;;;;;;;5010928;28;20087;-87
2022/08/25 02:28:48;;;;;;;19.88;17.98;;;;;;;;;;5002230;28;20046;-86
2022/08/25 02:31:14;;;;;;;19.05;17.15;;;;;;;;;;5006955;28;20045;-86
2022/08/25 02:33:40;;;;;;;19.52;17.73;;;;;;;;;;5006677;28;20377;-85
2022/08/25 02:36:06;;;;;;;17.75;16.17;;;;;;;;;;5007106;28;20617;-85
2022/08/25 02:38:32;;;;;;;18.92;17.30;;;;;;;;;;5023336;28;20042;-86
2022/08/25 02:40:59;;;;;;;18.85;17.25;;;;;;;;;;5024356;28;20944;-85
2022/08/25 02:43:25;;;;;;;19.50;17.70;;;;;;;;;;5026934;28;20041;-87
2022/08/25 02:45:55;;;;;;;18.85;17.15;;;;;;;;;;5024000;28;20515;-88
2022/08/25 02:48:22;;;;;;;18.33;16.42;;;;;;;;;;5008504;28;20095;-87
2022/08/25 02:50:50;;;;;;;19.48;17.52;;;;;;;;;;5029032;28;20041;-85
2022/08/25 02:53:17;;;;;;;20.50;18.63;;;;;;;;;;5002470;28;20155;-87
2022/08/25 02:55:43;;;;;;;18.33;16.75;;;;;;;;;;5025761;28;20531;-87
2022/08/25 02:58:09;;;;;;;17.63;16.13;;;;;;;;;;5023671;28;20504;-86
2022/08/25 03:00:35;;;;;;;17.77;16.20;;;;;;;;;;5002362;28;20061;-86
2022/08/25 03:03:02;;;;;;;18.38;16.63;;;;;;;;;;5007964;28;20123;-87
2022/08/25 03:05:28;;;;;;;17.70;16.10;;;;;;;;;;5023763;28;20041;-85
2022/08/25 03:07:55;;;;;;;18.55;16.83;;;;;;;;;;5025717;28;20041;-86
2022/08/25 03:10:21;;;;;;;18.35;16.65;;;;;;;;;;5024344;28;20128;-87
2022/08/25 03:12:47;;;;;;;18.38;16.60;;;;;;;;;;5026032;28;20204;-86
2022/08/25 03:15:15;;;;;;;17.17;15.52;;;;;;;;;;5003311;28;20417;-87
2022/08/25 03:17:41;;;;;;;17.52;15.93;;;;;;;;;;5022128;28;20076;-87
2022/08/25 03:20:07;;;;;;;17.70;15.90;;;;;;;;;;5002490;28;20037;-85
2022/08/25 03:22:33;;;;;;;16.85;15.45;;;;;;;;;;5004037;28;20037;-86
2022/08/25 03:27:44;;;;;;;17.20;15.70;;;;;;;;;;5023898;28;20042;-87
2022/08/25 03:30:11;;;;;;;16.92;15.40;;;;;;;;;;5019793;28;20092;-87
2022/08/25 03:32:37;;;;;;;17.08;15.35;;;;;;;;;;5006143;28;20508;-87
2022/08/25 03:35:04;;;;;;;16.85;15.35;;;;;;;;;;5022592;28;20046;-87
2022/08/25 03:37:30;;;;;;;15.77;14.45;;;;;;;;;;5025644;28;20049;-87
2022/08/25 03:39:56;;;;;;;16.52;15.02;;;;;;;;;;5005880;28;20081;-87
2022/08/25 03:42:22;;;;;;;14.98;13.68;;;;;;;;;;5004351;28;20455;-87
2022/08/25 03:44:48;;;;;;;14.63;13.23;;;;;;;;;;5008522;28;20103;-87
2022/08/25 03:47:14;;;;;;;14.82;13.55;;;;;;;;;;5005236;28;20088;-88
2022/08/25 03:49:40;;;;;;;14.63;13.25;;;;;;;;;;5025253;28;20145;-86
2022/08/25 03:52:06;;;;;;;14.57;13.27;;;;;;;;;;5021647;28;20048;-86
2022/08/25 03:54:32;;;;;;;14.25;12.85;;;;;;;;;;5004451;28;20408;-86
2022/08/25 03:56:58;;;;;;;13.98;12.70;;;;;;;;;;5023547;28;20037;-86
2022/08/25 03:59:26;;;;;;;14.15;12.90;;;;;;;;;;5019369;28;20037;-87
2022/08/25 04:01:52;;;;;;;14.90;12.68;;;;;;;;;;5005528;28;20061;-87
2022/08/25 04:04:19;;;;;;;13.40;12.05;;;;;;;;;;5022867;28;20088;-86
2022/08/25 04:06:46;;;;;;;13.35;12.20;;;;;;;;;;5003438;28;20050;-86
2022/08/25 04:09:12;;;;;;;12.77;11.68;;;;;;;;;;5005866;28;20041;-86
2022/08/25 04:11:38;;;;;;;13.25;12.00;;;;;;;;;;5024844;28;20045;-87
2022/08/25 04:14:04;;;;;;;11.88;10.70;;;;;;;;;;5005994;28;20052;-87
2022/08/25 04:16:32;;;;;;;13.23;11.73;;;;;;;;;;5005581;28;20053;-88
2022/08/25 04:18:59;;;;;;;12.43;11.18;;;;;;;;;;5026890;28;20033;-87
2022/08/25 04:21:26;;;;;;;11.88;10.88;;;;;;;;;;5026347;28;20710;-88
2022/08/25 04:23:52;;;;;;;11.63;10.48;;;;;;;;;;5025453;28;20037;-88
2022/08/25 04:26:23;;;;;;;11.25;10.23;;;;;;;;;;5006540;28;20049;-88
2022/08/25 04:28:49;;;;;;;11.82;10.00;;;;;;;;;;5005737;28;20038;-88
2022/08/25 04:31:16;;;;;;;10.00;9.00;;;;;;;;;;5023995;28;20056;-87
2022/08/25 04:33:43;;;;;;;10.57;9.68;;;;;;;;;;5011132;28;20405;-88
2022/08/25 04:36:13;;;;;;;11.05;10.00;;;;;;;;;;5031218;28;20042;-87
2022/08/25 04:38:40;;;;;;;10.40;9.48;;;;;;;;;;5025222;28;20056;-85
2022/08/25 04:41:06;;;;;;;9.70;8.75;;;;;;;;;;5026482;28;20416;-88
2022/08/25 04:43:33;;;;;;;9.48;8.35;;;;;;;;;;5011376;28;20048;-87
2022/08/25 04:46:00;;;;;;;9.38;8.48;;;;;;;;;;5008469;28;20068;-89
2022/08/25 04:48:26;;;;;;;9.50;8.60;;;;;;;;;;5026889;28;20064;-88
2022/08/25 04:50:52;;;;;;;8.90;8.10;;;;;;;;;;5032022;28;20426;-89
2022/08/25 04:53:20;;;;;;;8.18;7.38;;;;;;;;;;5012462;28;20045;-90
2022/08/25 04:55:47;;;;;;;9.10;8.10;;;;;;;;;;5034891;28;20081;-91
2022/08/25 04:58:15;;;;;;;9.02;7.90;;;;;;;;;;5031080;28;20054;-91
2022/08/25 05:00:41;;;;;;;8.32;7.25;;;;;;;;;;5022444;28;20058;-90
2022/08/25 05:03:07;;;;;;;7.72;7.03;;;;;;;;;;5024711;28;20130;-88
2022/08/25 05:05:39;;;;;;;7.78;6.97;;;;;;;;;;5030415;28;20043;-89
2022/08/25 05:08:05;;;;;;;7.93;7.13;;;;;;;;;;5010491;28;20049;-89
2022/08/25 05:10:32;;;;;;;7.85;7.10;;;;;;;;;;5027440;28;20133;-89
2022/08/25 05:12:58;;;;;;;8.60;7.50;;;;;;;;;;5029850;28;20140;-90
2022/08/25 05:18:10;;;;;;;10.10;9.20;;;;;;;;;;5007771;28;20045;-89
2022/08/25 05:20:37;;;;;;;8.55;7.07;;;;;;;;;;5009636;28;20401;-90
2022/08/25 05:23:03;;;;;;;8.30;7.50;;;;;;;;;;5013084;28;20047;-91
2022/08/25 05:25:30;;;;;;;10.45;6.63;;;;;;;;;;5010989;28;20485;-89
2022/08/25 05:27:56;;;;;;;7.60;6.72;;;;;;;;;;5002860;28;20116;-90
2022/08/25 05:30:27;;;;;;;9.70;6.65;;;;;;;;;;5014374;28;20080;-89
2022/08/25 05:32:53;;;;;;;7.90;6.50;;;;;;;;;;5013441;28;20452;-90
2022/08/25 05:35:19;;;;;;;7.28;6.53;;;;;;;;;;5032468;28;20049;-91
2022/08/25 05:37:46;;;;;;;6.80;6.20;;;;;;;;;;5042448;28;20045;-91
2022/08/25 05:40:12;;;;;;;6.50;5.90;;;;;;;;;;5027597;28;20049;-91
2022/08/25 05:42:39;;;;;;;7.32;6.60;;;;;;;;;;5030409;28;20402;-93
2022/08/25 05:45:05;;;;;;;6.68;6.07;;;;;;;;;;5029860;28;20045;-92
2022/08/25 05:47:31;;;;;;;7.10;6.00;;;;;;;;;;5034471;28;20037;-90
2022/08/25 05:49:57;;;;;;;6.03;5.53;;;;;;;;;;5018099;28;20046;-92
2022/08/25 05:52:23;;;;;;;7.60;6.28;;;;;;;;;;5011479;28;20397;-91
2022/08/25 05:54:49;;;;;;;7.10;6.40;;;;;;;;;;5030249;28;20184;-82
2022/08/25 05:57:15;;;;;;;7.63;6.07;;;;;;;;;;5008828;28;20120;-82
2022/08/25 05:59:41;;;;;;;6.90;5.82;;;;;;;;;;5015250;28;20041;-83
2022/08/25 06:04:52;;;;;;;7.93;5.95;;;;;;;;;;5025150;28;20057;-82
2022/08/25 06:07:18;;;;;;;7.22;5.80;;;;;;;;;;5007707;28;20104;-81
2022/08/25 06:09:48;;;;;;;6.15;5.30;;;;;;;;;;5021344;28;20049;-82
2022/08/25 06:12:15;;;;;;;5.95;5.45;;;;;;;;;;5008161;28;20038;-81
2022/08/25 06:14:41;;;;;;;8.93;5.25;;;;;;;;;;5026837;28;20047;-81
2022/08/25 06:17:07;;;;;;;7.47;5.55;;;;;;;;;;5025828;28;20046;-81
2022/08/25 06:19:33;;;;;;;6.05;5.47;;;;;;;;;;5003734;28;20045;-81
2022/08/25 06:21:59;;;;;;;6.13;5.55;;;;;;;;;;5009090;28;20412;-81
2022/08/25 06:24:26;;;;;;;7.15;5.40;;;;;;;;;;5007436;28;20520;-79
2022/08/25 06:26:53;;;;;;;8.02;4.95;;;;;;;;;;5030319;28;20041;-81
2022/08/25 06:29:19;;;;;;;5.65;5.15;;;;;;;;;;5004884;28;20049;-82
2022/08/25 06:31:46;;;;;;;5.35;4.85;;;;;;;;;;5029683;28;20041;-81
2022/08/25 06:34:12;;;;;;;5.32;4.80;;;;;;;;;;5029206;28;20098;-80
2022/08/25 06:36:39;;;;;;;6.43;5.03;;;;;;;;;;5025979;28;20056;-82
2022/08/25 06:39:05;;;;;;;6.95;5.00;;;;;;;;;;5028417;28;20060;-80
2022/08/25 06:41:31;;;;;;;5.35;4.88;;;;;;;;;;5008330;28;20061;-81
2022/08/25 06:43:58;;;;;;;5.88;4.88;;;;;;;;;;5012232;28;20080;-81
2022/08/25 06:46:25;;;;;;;8.52;4.95;;;;;;;;;;5026007;28;20042;-81
2022/08/25 06:48:53;;;;;;;7.70;5.10;;;;;;;;;;5011691;28;20494;-81
2022/08/25 06:51:19;;;;;;;5.82;4.82;;;;;;;;;;5010302;28;20053;-81
2022/08/25 06:53:46;;;;;;;6.63;4.70;;;;;;;;;;5005691;28;20053;-82
2022/08/25 06:56:13;;;;;;;5.38;4.88;;;;;;;;;;5027035;28;20049;-81
2022/08/25 06:58:40;;;;;;;5.07;4.60;;;;;;;;;;5008673;28;20132;-82
2022/08/25 07:01:10;;;;;;;7.20;4.60;;;;;;;;;;5020657;28;20075;-81
2022/08/25 07:03:36;;;;;;;7.10;4.90;;;;;;;;;;5024197;28;20045;-81
2022/08/25 07:06:02;;;;;;;5.53;4.32;;;;;;;;;;5007654;28;20048;-81
2022/08/25 07:08:28;;;;;;;5.80;4.65;;;;;;;;;;5021901;28;20915;-81
2022/08/25 07:10:54;;;;;;;5.03;4.53;;;;;;;;;;5012170;28;20041;-81
2022/08/25 07:13:20;;;;;;;5.53;4.75;;;;;;;;;;5009962;28;20439;-82
2022/08/25 07:15:46;;;;;;;5.75;4.22;;;;;;;;;;5032350;28;20051;-81
2022/08/25 07:18:13;;;;;;;7.60;5.05;;;;;;;;;;5012468;28;20045;-81
2022/08/25 07:20:39;;;;;;;7.57;4.80;;;;;;;;;;5010163;28;20081;-82
2022/08/25 07:23:06;;;;;;;5.15;4.60;;;;;;;;;;5003883;28;20030;-81
2022/08/25 07:25:32;;;;;;;5.80;4.50;;;;;;;;;;5027906;28;20048;-81
2022/08/25 07:27:58;;;;;;;6.05;4.45;;;;;;;;;;5009361;28;20041;-82
2022/08/25 07:30:25;;;;;;;5.32;4.82;;;;;;;;;;5028526;28;20570;-81
2022/08/25 07:32:51;;;;;;;6.72;4.80;;;;;;;;;;5009213;28;20045;-82
2022/08/25 07:35:22;;;;;;;6.28;4.40;;;;;;;;;;5008734;28;20052;-81
2022/08/25 07:37:49;;;;;;;5.00;4.40;;;;;;;;;;5016836;28;20042;-81
2022/08/25 07:40:17;;;;;;;6.25;4.70;;;;;;;;;;5025776;28;20565;-81
2022/08/25 07:42:44;;;;;;;5.45;4.68;;;;;;;;;;5026741;28;20484;-81
2022/08/25 07:45:11;;;;;;;6.78;4.45;;;;;;;;;;5004018;28;20457;-82
2022/08/25 07:47:37;;;;;;;5.22;4.72;;;;;;;;;;5010990;28;20049;-81
2022/08/25 07:50:04;;;;;;;7.88;4.70;;;;;;;;;;5010717;28;20050;-81
2022/08/25 07:52:30;;;;;;;6.80;4.15;;;;;;;;;;5028461;28;20045;-81
2022/08/25 07:54:57;;;;;;;5.03;4.40;;;;;;;;;;5011982;28;20072;-82
2022/08/25 07:57:29;;;;;;;5.95;4.38;;;;;;;;;;5019072;28;20108;-81
2022/08/25 07:59:57;;;;;;;5.00;4.13;;;;;;;;;;5026311;28;20116;-81
2022/08/25 08:02:23;;;;;;;4.82;4.13;;;;;;;;;;5009855;28;20691;-81
2022/08/25 08:04:50;;;;;;;5.40;3.90;;;;;;;;;;5008955;28;20087;-82
2022/08/25 08:07:17;;;;;;;4.93;3.50;;;;;;;;;;5009650;28;20481;-81
2022/08/25 08:09:43;;;;;;;4.82;3.90;;;;;;;;;;5008743;28;20053;-81
2022/08/25 08:12:10;;;;;;;5.10;3.95;;;;;;;;;;5027264;28;20087;-81
2022/08/25 08:14:36;;;;;;;6.95;4.03;;;;;;;;;;5014889;28;20489;-82
2022/08/25 08:17:07;;;;;;;6.13;3.95;;;;;;;;;;5012449;28;20056;-81
2022/08/25 08:19:33;;;;;;;6.50;3.90;;;;;;;;;;5013880;28;20053;-80
2022/08/25 08:21:59;;;;;;;3.78;3.30;;;;;;;;;;5033062;28;20110;-78
2022/08/25 08:24:25;;;;;;;4.07;3.50;;;;;;;;;;5008625;28;20197;-78
2022/08/25 08:26:51;;;;;;;6.13;3.70;;;;;;;;;;5032877;28;20037;-79
2022/08/25 08:29:19;;;;;;;4.32;3.47;;;;;;;;;;5017943;28;20095;-79
2022/08/25 08:31:44;;;;;;;5.00;3.70;;;;;;;;;;5025652;28;20485;-79
2022/08/25 08:34:11;;;;;;;4.70;3.35;;;;;;;;;;5032576;28;20052;-78
2022/08/25 08:36:37;;;;;;;3.97;3.40;;;;;;;;;;5029453;28;20270;-78
2022/08/25 08:39:03;;;;;;;4.20;3.60;;;;;;;;;;5013627;28;20128;-79
2022/08/25 08:44:36;;;;;;;5.53;3.38;;;;;;;;;;5013864;28;20050;-79
2022/08/25 08:47:05;;;;;;;3.70;3.40;;;;;;;;;;5012962;28;20081;-79
2022/08/25 08:49:50;;;;;;;5.15;3.30;;;;;;;;;;5013081;28;20040;-79
2022/08/25 08:52:19;;;;;;;6.38;3.10;;;;;;;;;;5003290;28;20105;-79
2022/08/25 08:54:46;;;;;;;5.38;3.33;;;;;;;;;;5031290;28;20136;-79
2022/08/25 08:57:17;;;;;;;6.05;3.38;;;;;;;;;;5027407;28;20084;-78
2022/08/25 08:59:47;;;;;;;5.47;3.13;;;;;;;;;;5030789;28;20077;-79
2022/08/25 09:02:19;;;;;;;6.57;3.28;;;;;;;;;;5030912;28;20046;-79
2022/08/25 09:04:52;;;;;;;6.18;3.40;;;;;;;;;;5021272;28;20045;-79
2022/08/25 09:07:18;;;;;;;;;;;;;;;;;;5012597;28;20053;-79
2022/08/25 09:09:44;;;;;;;4.47;2.97;;;;;;;;;;5014328;28;19917;-78
2022/08/25 09:12:15;;;;;;;5.82;2.97;;;;;;;;;;5026341;28;20042;-79
2022/08/25 09:14:48;;;;;;;3.78;3.10;;;;;;;;;;5025408;28;20052;-79
2022/08/25 09:17:18;;;;;;;4.68;3.10;;;;;;;;;;5007829;28;20049;-78
2022/08/25 09:19:50;;;;;;;6.57;3.10;;;;;;;;;;5030297;28;20115;-79
2022/08/25 09:22:38;;;;;;;3.28;2.97;;;;;;;;;;5012540;28;20481;-78
2022/08/25 09:25:04;;;;;;;4.00;3.20;;;;;;;;;;5028288;28;20037;-79
2022/08/25 09:27:42;;;;;;;5.95;3.20;;;;;;;;;;5012719;28;20045;-78
2022/08/25 09:30:15;;;;;;;5.47;2.83;;;;;;;;;;5011175;28;20038;-78
2022/08/25 09:33:00;;;;;;;4.53;2.53;;;;;;;;;;5013294;28;20045;-80
2022/08/25 09:35:27;;;;;;;5.53;3.10;;;;;;;;;;5006315;28;20053;-79
2022/08/25 09:37:56;;;;;;;4.10;2.67;;;;;;;;;;5012201;28;20045;-79
2022/08/25 09:40:23;;;;;;;4.03;2.70;;;;;;;;;;5031301;28;20049;-78
2022/08/25 09:42:51;;;;;;;6.65;2.63;;;;;;;;;;5048390;28;20049;-79
2022/08/25 09:45:30;;;;;;;3.28;2.30;;;;;;;;;;5010751;28;20041;-79
2022/08/25 09:47:56;;;;;;;3.08;2.35;;;;;;;;;;5030903;28;20045;-79
2022/08/25 09:50:22;;;;;;;3.47;2.30;;;;;;;;;;5027936;28;20065;-79
2022/08/25 09:52:48;;;;;;;3.25;2.25;;;;;;;;;;5029598;28;20034;-80
2022/08/25 09:55:33;;;;;;;3.85;2.35;;;;;;;;;;5013258;28;20053;-79
2022/08/25 09:57:59;;;;;;;5.57;2.40;;;;;;;;;;5011479;28;20049;-79
2022/08/25 10:00:35;;;;;;;4.82;2.33;;;;;;;;;;5008922;28;20057;-78
2022/08/25 10:03:03;;;;;;;6.78;2.65;;;;;;;;;;5012431;28;20563;-78
2022/08/25 10:05:33;;;;;;;4.80;2.40;;;;;;;;;;5029919;28;20409;-79
2022/08/25 10:08:02;;;;;;;5.55;2.50;;;;;;;;;;5013175;28;20061;-79
2022/08/25 10:10:28;;;;;;;4.18;2.50;;;;;;;;;;5012397;28;20138;-79
2022/08/25 10:12:56;;;;;;;4.85;2.40;;;;;;;;;;5029276;28;20091;-79
2022/08/25 10:15:29;;;;;;;3.17;2.30;;;;;;;;;;5030318;28;20088;-78
2022/08/25 10:17:55;;;;;;;4.65;2.13;;;;;;;;;;5010965;28;20041;-79
2022/08/25 10:20:26;;;;;;;2.53;2.17;;;;;;;;;;5023843;28;20084;-79
2022/08/25 10:22:52;;;;;;;7.97;2.72;;;;;;;;;;5006826;28;20045;-80
2022/08/25 10:25:26;;;;;;;3.38;2.20;;;;;;;;;;5025313;28;20498;-80
2022/08/25 10:28:04;;;;;;;3.90;2.40;;;;;;;;;;5027623;28;20434;-79
2022/08/25 10:30:41;;;;;;;2.40;2.17;;;;;;;;;;5012589;28;20111;-78
2022/08/25 10:33:26;;;;;;;2.97;2.00;;;;;;;;;;5012902;28;20080;-79
2022/08/25 10:35:55;;;;;;;4.75;2.30;;;;;;;;;;5028860;28;20046;-78
2022/08/25 10:38:25;;;;;;;3.97;2.25;;;;;;;;;;5008987;28;20053;-79
2022/08/25 10:40:56;;;;;;;2.60;2.20;;;;;;;;;;5013200;28;20370;-79
2022/08/25 10:43:31;;;;;;;4.75;2.00;;;;;;;;;;5011085;28;20046;-79
2022/08/25 10:46:03;;;;;;;2.33;2.10;;;;;;;;;;5011204;28;20052;-80
2022/08/25 10:48:32;;;;;;;4.82;2.15;;;;;;;;;;5022586;28;20041;-79
2022/08/25 10:51:05;;;;;;;3.20;1.73;;;;;;;;;;5012559;28;20144;-79
2022/08/25 10:53:31;;;;;;;2.85;1.80;;;;;;;;;;5023015;28;20196;-79
2022/08/25 10:56:02;;;;;;;6.03;1.70;;;;;;;;;;5013010;28;20141;-80
2022/08/25 10:58:41;;;;;;;3.00;1.73;;;;;;;;;;5010357;28;20208;-79
2022/08/25 11:01:12;;;;;;;2.13;1.85;;;;;;;;;;5027523;28;20080;-79
2022/08/25 11:03:45;;;;;;;2.53;1.85;;;;;;;;;;5024819;28;20136;-79
2022/08/25 11:06:17;;;;;;;2.72;1.80;;;;;;;;;;5025548;28;20095;-79
2022/08/25 11:08:47;;;;;;;2.08;1.75;;;;;;;;;;5008321;28;20042;-82
2022/08/25 11:11:32;;;;;;;2.85;1.83;;;;;;;;;;5008525;28;20076;-80
2022/08/25 11:13:59;;;;;;;2.35;2.10;;;;;;;;;;5003695;28;20041;-80
2022/08/25 11:16:25;;;;;;;5.53;2.10;;;;;;;;;;5011513;28;20092;-79
2022/08/25 11:19:18;;;;;;;2.65;2.05;;;;;;;;;;5024419;28;20065;-80
2022/08/25 11:22:00;;;;;;;2.10;1.90;;;;;;;;;;4980159;28;20485;-79
2022/08/25 11:24:31;;;;;;;3.90;1.90;;;;;;;;;;5023334;28;20067;-81
2022/08/25 11:26:59;;;;;;;6.00;2.08;;;;;;;;;;5017886;28;20047;-79
2022/08/25 11:29:29;;;;;;;1.95;1.65;;;;;;;;;;5025422;28;20501;-80
2022/08/25 11:31:58;;;;;;;3.35;1.70;;;;;;;;;;5028057;28;20037;-80
2022/08/25 11:34:25;;;;;;;2.58;1.73;;;;;;;;;;5009148;28;20455;-79
2022/08/25 11:37:06;;;;;;;2.05;1.70;;;;;;;;;;5026465;28;20041;-80
2022/08/25 11:39:35;;;;;;;5.88;2.00;;;;;;;;;;5028266;28;20508;-82
2022/08/25 11:42:07;;;;;;;2.20;1.80;;;;;;;;;;5008612;28;20045;-79
2022/08/25 11:44:52;;;;;;;4.43;1.80;;;;;;;;;;5038563;28;20037;-80
2022/08/25 11:47:18;;;;;;;1.67;1.58;;;;;;;;;;5008171;28;20137;-80
2022/08/25 11:49:50;;;;;;;4.68;2.10;;;;;;;;;;5010130;28;20472;-80
2022/08/25 11:52:31;;;;;;;2.75;2.00;;;;;;;;;;5025069;28;20038;-81
2022/08/25 11:55:06;;;;;;;2.67;1.58;;;;;;;;;;5008641;28;20053;-81
2022/08/25 11:57:32;;;;;;;2.63;1.85;;;;;;;;;;5011080;28;20068;-81
2022/08/25 12:00:05;;;;;;;2.17;1.90;;;;;;;;;;5003527;28;20053;-81
2022/08/25 12:02:37;;;;;;;2.50;1.70;;;;;;;;;;5027883;28;20393;-81
2022/08/25 12:05:08;;;;;;;2.25;1.70;;;;;;;;;;5026450;28;20128;-81
2022/08/25 12:10:51;;;;;;;1.77;1.50;;;;;;;;;;5006287;28;20100;-81
2022/08/25 12:13:36;;;;;;;1.98;1.75;;;;;;;;;;5007316;28;20053;-81
2022/08/25 12:16:02;;;;;;;4.18;1.90;;;;;;;;;;5010663;28;20049;-81
2022/08/25 12:18:31;;;;;;;3.05;1.88;;;;;;;;;;5028216;28;20096;-80
2022/08/25 12:20:57;;;;;;;2.38;1.67;;;;;;;;;;5026416;28;20099;-80
2022/08/25 12:23:35;;;;;;;5.00;1.88;;;;;;;;;;5010561;28;20397;-81
2022/08/25 12:26:07;;;;;;;2.10;1.90;;;;;;;;;;5007724;28;20482;-81
2022/08/25 12:28:36;;;;;;;3.42;1.85;;;;;;;;;;5009468;28;20041;-80
2022/08/25 12:31:07;;;;;;;3.53;1.95;;;;;;;;;;5007159;28;20103;-81
2022/08/25 12:33:36;;;;;;;2.97;1.90;;;;;;;;;;5029004;28;20132;-81
2022/08/25 12:36:04;;;;;;;1.90;1.80;;;;;;;;;;5011139;28;20042;-81
2022/08/25 12:38:39;;;;;;;2.58;1.95;;;;;;;;;;5005092;28;20046;-81
2022/08/25 12:41:08;;;;;;;2.08;1.90;;;;;;;;;;5009987;28;20421;-81
2022/08/25 12:43:45;;;;;;;3.92;2.05;;;;;;;;;;5011206;28;20046;-80
2022/08/25 12:46:20;;;;;;;3.45;1.83;;;;;;;;;;5025123;28;20497;-82
2022/08/25 12:49:18;;;;;;;2.13;1.90;;;;;;;;;;5008082;28;20128;-81
2022/08/25 12:52:03;;;;;;;2.08;1.88;;;;;;;;;;4987660;28;20073;-81
2022/08/25 12:54:32;;;;;;;1.90;1.80;;;;;;;;;;5027584;28;20049;-81
2022/08/25 12:57:01;;;;;;;4.07;1.92;;;;;;;;;;5013166;28;20073;-82
2022/08/25 12:59:31;;;;;;;1.77;1.67;;;;;;;;;;5006243;28;20393;-81
2022/08/25 13:02:03;;;;;;;2.13;1.92;;;;;;;;;;5025452;28;20125;-82
2022/08/25 13:04:48;;;;;;;3.63;2.17;;;;;;;;;;5028553;28;20659;-81
2022/08/25 13:07:17;;;;;;;3.80;2.10;;;;;;;;;;5014499;28;20124;-81
2022/08/25 13:09:57;;;;;;;5.18;2.10;;;;;;;;;;5011014;28;20220;-82
2022/08/25 13:12:30;;;;;;;1.83;1.73;;;;;;;;;;5031585;28;20110;-80
2022/08/25 13:14:58;;;;;;;2.22;1.80;;;;;;;;;;5025599;28;20481;-81
2022/08/25 13:17:30;;;;;;;2.85;1.95;;;;;;;;;;5012976;28;20474;-80
2022/08/25 13:20:16;;;;;;;2.58;1.90;;;;;;;;;;5013199;28;20099;-81
2022/08/25 13:22:49;;;;;;;2.63;1.90;;;;;;;;;;5035177;28;20097;-81
2022/08/25 13:25:17;;;;;;;2.20;1.95;;;;;;;;;;5035519;28;20049;-85
2022/08/25 13:27:47;;;;;;;2.00;1.90;;;;;;;;;;5028575;28;20046;-80
2022/08/25 13:30:21;;;;;;;5.57;2.20;;;;;;;;;;5007374;28;20057;-80
2022/08/25 13:32:47;;;;;;;3.08;2.00;;;;;;;;;;5026260;28;21300;-81
2022/08/25 13:35:22;;;;;;;2.75;2.15;;;;;;;;;;5029012;28;20045;-81
2022/08/25 13:37:48;;;;;;;1.90;1.80;;;;;;;;;;5008226;28;20044;-82
2022/08/25 13:40:20;;;;;;;3.55;2.00;;;;;;;;;;5025512;28;20128;-81
2022/08/25 13:42:51;;;;;;;2.55;2.00;;;;;;;;;;5005218;28;20417;-82
2022/08/25 13:45:22;;;;;;;3.20;2.10;;;;;;;;;;5012291;28;20049;-82
2022/08/25 13:47:49;;;;;;;4.43;2.08;;;;;;;;;;5010970;28;20068;-82
2022/08/25 13:50:16;;;;;;;2.03;1.92;;;;;;;;;;5034086;28;20045;-82
2022/08/25 13:52:46;;;;;;;2.95;2.10;;;;;;;;;;5005225;28;20049;-82
2022/08/25 13:55:18;;;;;;;5.32;2.20;;;;;;;;;;5028922;28;20556;-82
2022/08/25 13:57:44;;;;;;;3.22;2.10;;;;;;;;;;5026653;28;20120;-82
2022/08/25 14:00:11;;;;;;;4.53;2.00;;;;;;;;;;5012645;28;20060;-82
2022/08/25 14:02:43;;;;;;;2.03;1.90;;;;;;;;;;5009903;28;20428;-82
2022/08/25 14:05:10;;;;;;;3.92;2.10;;;;;;;;;;5013103;28;20553;-81
2022/08/25 14:07:36;;;;;;;2.90;2.00;;;;;;;;;;5010520;28;20037;-80
2022/08/25 14:10:07;;;;;;;3.47;2.00;;;;;;;;;;5009652;28;20501;-81
2022/08/25 14:12:34;;;;;;;5.93;2.08;;;;;;;;;;5027862;28;20037;-80
2022/08/25 14:15:03;;;;;;;3.00;1.90;;;;;;;;;;5005460;28;20160;-82
2022/08/25 14:17:29;;;;;;;3.33;2.03;;;;;;;;;;5009425;28;20041;-81
2022/08/25 14:19:56;;;;;;;3.25;2.08;;;;;;;;;;5012294;28;20593;-81
2022/08/25 14:22:22;;;;;;;2.03;1.77;;;;;;;;;;5024816;28;20052;-81
2022/08/25 14:24:52;;;;;;;1.73;1.60;;;;;;;;;;5007525;28;20544;-82
2022/08/25 14:27:18;;;;;;;1.75;1.65;;;;;;;;;;5029461;28;20124;-81
2022/08/25 14:29:44;;;;;;;2.47;1.60;;;;;;;;;;5024017;28;20045;-81
2022/08/25 14:32:10;;;;;;;3.42;1.60;;;;;;;;;;5026732;28;20044;-81
2022/08/25 14:34:37;;;;;;;4.18;2.05;;;;;;;;;;5028430;28;20045;-83
2022/08/25 14:37:11;;;;;;;2.38;1.50;;;;;;;;;;5013057;28;20099;-83
2022/08/25 14:39:37;;;;;;;3.22;1.63;;;;;;;;;;5005851;28;20043;-83
2022/08/25 14:42:03;;;;;;;2.78;1.88;;;;;;;;;;5012502;28;20049;-83
2022/08/25 14:44:29;;;;;;;2.22;1.60;;;;;;;;;;5012374;28;20057;-83
2022/08/25 14:46:56;;;;;;;3.00;1.60;;;;;;;;;;5025986;28;20037;-84
2022/08/25 14:49:28;;;;;;;1.55;1.33;;;;;;;;;;5024752;28;20132;-84
2022/08/25 14:51:54;;;;;;;1.60;1.50;;;;;;;;;;5010608;28;20080;-84
2022/08/25 14:54:23;;;;;;;2.80;1.35;;;;;;;;;;5026296;28;20081;-84
2022/08/25 14:56:49;;;;;;;1.42;1.33;;;;;;;;;;5012782;28;20489;-85
2022/08/25 14:59:15;;;;;;;1.50;1.40;;;;;;;;;;5005558;28;20049;-84